createdAt,value
2018-02-09T00:01:43.957Z,56.64
2018-02-09T00:04:11.932Z,56.79
2018-02-09T00:06:39.603Z,56.58
2018-02-09T00:09:07.177Z,56.40
2018-02-09T00:11:35.028Z,56.44
2018-02-09T00:14:02.570Z,56.36
2018-02-09T00:16:30.121Z,56.54
2018-02-09T00:18:57.669Z,56.25
2018-02-09T00:21:25.195Z,57.45
2018-02-09T00:23:52.754Z,58.21
2018-02-09T00:26:20.277Z,57.24
2018-02-09T00:28:48.026Z,57.30
2018-02-09T00:31:15.544Z,56.80
2018-02-09T00:33:43.061Z,56.65
2018-02-09T00:36:10.610Z,56.85
2018-02-09T00:38:38.129Z,57.16
2018-02-09T00:41:05.825Z,57.47
2018-02-09T00:43:33.350Z,58.77
2018-02-09T00:46:00.885Z,58.86
2018-02-09T00:48:28.433Z,58.53
2018-02-09T00:50:55.957Z,57.96
2018-02-09T00:53:23.722Z,57.90
2018-02-09T00:55:51.249Z,57.95
2018-02-09T00:58:18.781Z,57.72
2018-02-09T01:00:46.335Z,57.67
2018-02-09T01:03:13.850Z,57.67
2018-02-09T01:05:41.520Z,57.79
2018-02-09T01:08:09.044Z,58.10
2018-02-09T01:10:36.610Z,58.47
2018-02-09T01:13:04.171Z,58.52
2018-02-09T01:15:31.697Z,58.17
2018-02-09T01:17:59.842Z,58.34
2018-02-09T01:20:27.382Z,58.66
2018-02-09T01:22:54.921Z,58.98
2018-02-09T01:25:22.506Z,58.62
2018-02-09T01:27:50.029Z,58.40
2018-02-09T01:30:17.603Z,59.38
2018-02-09T01:32:45.133Z,59.23
2018-02-09T01:35:12.659Z,58.28
2018-02-09T01:37:40.222Z,59.30
2018-02-09T01:40:07.753Z,59.45
2018-02-09T01:42:35.402Z,58.54
2018-02-09T01:45:02.940Z,58.21
2018-02-09T01:47:30.470Z,58.39
2018-02-09T01:50:09.905Z,58.00
2018-02-09T01:52:37.490Z,58.36
2018-02-09T01:55:05.189Z,58.67
2018-02-09T01:57:32.726Z,58.75
2018-02-09T02:00:00.254Z,59.40
2018-02-09T02:02:27.805Z,59.13
2018-02-09T02:04:55.333Z,58.48
2018-02-09T02:07:23.102Z,58.04
2018-02-09T02:09:50.624Z,57.94
2018-02-09T02:12:18.146Z,57.86
2018-02-09T02:14:46.089Z,58.66
2018-02-09T02:17:13.611Z,58.96
2018-02-09T02:19:41.170Z,59.06
2018-02-09T02:22:08.690Z,60.14
2018-02-09T02:24:36.214Z,59.87
2018-02-09T02:27:03.773Z,59.18
2018-02-09T02:29:31.293Z,58.84
2018-02-09T02:31:59.006Z,59.08
2018-02-09T02:34:26.531Z,58.95
2018-02-09T02:36:54.058Z,58.03
2018-02-09T02:39:21.604Z,57.78
2018-02-09T02:41:49.135Z,57.82
2018-02-09T02:44:16.897Z,57.98
2018-02-09T02:46:44.424Z,57.53
2018-02-09T02:49:11.963Z,57.41
2018-02-09T02:51:39.514Z,57.26
2018-02-09T02:54:07.041Z,57.32
2018-02-09T02:56:34.741Z,57.66
2018-02-09T02:59:02.267Z,57.98
2018-02-09T03:01:29.785Z,57.74
2018-02-09T03:03:57.385Z,58.03
2018-02-09T03:06:24.901Z,58.28
2018-02-09T03:08:52.802Z,57.95
2018-02-09T03:11:20.334Z,58.77
2018-02-09T03:13:47.861Z,58.28
2018-02-09T03:16:15.406Z,58.59
2018-02-09T03:18:42.930Z,58.19
2018-02-09T03:21:10.785Z,57.99
2018-02-09T03:23:38.330Z,58.33
2018-02-09T03:26:05.845Z,58.32
2018-02-09T03:28:33.405Z,58.30
2018-02-09T03:31:00.936Z,58.91
2018-02-09T03:33:28.649Z,60.05
2018-02-09T03:35:56.173Z,60.28
2018-02-09T03:38:23.709Z,60.02
2018-02-09T03:40:51.266Z,58.53
2018-02-09T03:43:18.792Z,58.23
2018-02-09T03:45:46.590Z,59.04
2018-02-09T03:48:14.118Z,59.31
2018-02-09T03:50:41.643Z,58.96
2018-02-09T03:53:09.197Z,58.87
2018-02-09T03:55:36.735Z,58.91
2018-02-09T03:58:04.438Z,59.56
2018-02-09T04:00:33.310Z,59.64
2018-02-09T04:03:01.044Z,59.11
2018-02-09T04:05:28.590Z,59.96
2018-02-09T04:07:56.106Z,59.75
2018-02-09T04:10:23.817Z,59.26
2018-02-09T04:12:51.345Z,58.99
2018-02-09T04:15:19.185Z,59.26
2018-02-09T04:17:46.778Z,59.20
2018-02-09T04:20:14.303Z,59.05
2018-02-09T04:22:42.031Z,58.74
2018-02-09T04:25:09.541Z,58.19
2018-02-09T04:27:37.069Z,58.36
2018-02-09T04:30:04.622Z,58.15
2018-02-09T04:32:32.143Z,58.56
2018-02-09T04:34:59.925Z,58.61
2018-02-09T04:37:27.454Z,57.92
2018-02-09T04:39:54.979Z,58.17
2018-02-09T04:42:22.534Z,58.28
2018-02-09T04:44:50.057Z,57.83
2018-02-09T04:47:17.717Z,57.69
2018-02-09T04:49:45.243Z,57.35
2018-02-09T04:52:12.762Z,57.00
2018-02-09T04:54:40.311Z,56.80
2018-02-09T04:57:07.842Z,57.24
2018-02-09T04:59:35.717Z,57.17
2018-02-09T05:02:03.298Z,56.82
2018-02-09T05:04:30.820Z,56.58
2018-02-09T05:06:58.367Z,56.14
2018-02-09T05:09:25.891Z,56.17
2018-02-09T05:11:53.622Z,56.32
2018-02-09T05:14:21.149Z,56.19
2018-02-09T05:16:48.673Z,56.02
2018-02-09T05:19:16.229Z,56.84
2018-02-09T05:21:43.756Z,56.43
2018-02-09T05:24:11.519Z,56.37
2018-02-09T05:26:39.043Z,56.28
2018-02-09T05:29:06.574Z,56.73
2018-02-09T05:31:34.126Z,56.59
2018-02-09T05:34:01.653Z,56.44
2018-02-09T05:36:29.422Z,56.29
2018-02-09T05:38:56.942Z,56.19
2018-02-09T05:41:24.466Z,56.20
2018-02-09T05:43:52.027Z,56.36
2018-02-09T05:46:19.559Z,56.22
2018-02-09T05:48:47.215Z,57.03
2018-02-09T05:51:14.743Z,56.92
2018-02-09T05:53:42.267Z,57.08
2018-02-09T05:56:09.826Z,56.95
2018-02-09T05:58:37.365Z,56.62
2018-02-09T06:01:05.108Z,56.80
2018-02-09T06:03:32.633Z,56.66
2018-02-09T06:06:00.162Z,56.26
2018-02-09T06:08:27.710Z,56.34
2018-02-09T06:10:55.234Z,56.56
2018-02-09T06:13:22.796Z,56.71
2018-02-09T06:15:50.322Z,56.54
2018-02-09T06:18:17.846Z,57.10
2018-02-09T06:20:45.394Z,57.11
2018-02-09T06:23:12.918Z,56.72
2018-02-09T06:25:40.641Z,56.64
2018-02-09T06:28:08.165Z,57.21
2018-02-09T06:30:35.727Z,56.68
2018-02-09T06:33:03.273Z,56.55
2018-02-09T06:35:30.792Z,56.58
2018-02-09T06:37:58.665Z,56.92
2018-02-09T06:40:26.181Z,56.85
2018-02-09T06:42:53.701Z,56.50
2018-02-09T06:45:21.254Z,56.36
2018-02-09T06:47:48.808Z,56.93
2018-02-09T06:50:16.704Z,57.01
2018-02-09T06:52:44.229Z,57.52
2018-02-09T06:55:11.746Z,57.66
2018-02-09T06:57:44.849Z,56.95
2018-02-09T07:00:12.405Z,57.23
2018-02-09T07:02:40.133Z,57.18
2018-02-09T07:05:07.658Z,56.84
2018-02-09T07:07:35.844Z,56.92
2018-02-09T07:10:03.399Z,57.05
2018-02-09T07:12:32.436Z,57.22
2018-02-09T07:15:00.182Z,57.32
2018-02-09T07:17:27.709Z,57.43
2018-02-09T07:19:55.237Z,57.20
2018-02-09T07:22:22.787Z,57.42
2018-02-09T07:24:50.323Z,57.58
2018-02-09T07:27:17.881Z,57.24
2018-02-09T07:29:45.413Z,57.50
2018-02-09T07:32:12.944Z,57.51
2018-02-09T07:34:40.499Z,57.61
2018-02-09T07:37:08.090Z,58.19
2018-02-09T07:39:35.769Z,58.31
2018-02-09T07:42:03.327Z,58.29
2018-02-09T07:44:30.854Z,57.92
2018-02-09T07:46:58.405Z,59.54
2018-02-09T07:49:25.934Z,58.82
2018-02-09T07:51:53.664Z,59.13
2018-02-09T07:54:21.191Z,58.15
2018-02-09T07:56:48.705Z,58.55
2018-02-09T07:59:16.258Z,58.53
2018-02-09T08:01:43.788Z,58.54
2018-02-09T08:04:11.569Z,59.18
2018-02-09T08:06:39.096Z,58.00
2018-02-09T08:09:07.526Z,57.65
2018-02-09T08:11:35.073Z,57.64
2018-02-09T08:14:02.606Z,57.40
2018-02-09T08:16:30.161Z,57.25
2018-02-09T08:18:57.690Z,58.88
2018-02-09T08:21:25.206Z,58.13
2018-02-09T08:23:52.982Z,58.40
2018-02-09T08:26:20.509Z,59.42
2018-02-09T08:28:48.086Z,58.40
2018-02-09T08:31:15.610Z,57.45
2018-02-09T08:33:43.126Z,56.83
2018-02-09T08:36:10.686Z,56.58
2018-02-09T08:38:38.210Z,56.60
2018-02-09T08:41:05.986Z,56.93
2018-02-09T08:43:33.530Z,57.02
2018-02-09T08:46:01.063Z,58.85
2018-02-09T08:48:28.615Z,58.47
2018-02-09T08:50:56.155Z,57.99
2018-02-09T08:53:23.878Z,57.05
2018-02-09T08:55:51.409Z,56.82
2018-02-09T08:58:18.940Z,56.33
2018-02-09T09:00:46.503Z,56.71
2018-02-09T09:03:14.049Z,57.65
2018-02-09T09:05:41.808Z,57.39
2018-02-09T09:08:09.333Z,57.04
2018-02-09T09:10:36.866Z,56.30
2018-02-09T09:13:04.439Z,56.18
2018-02-09T09:15:31.954Z,56.26
2018-02-09T09:17:59.672Z,56.70
2018-02-09T09:20:27.334Z,56.74
2018-02-09T09:22:54.860Z,55.54
2018-02-09T09:25:22.404Z,55.33
2018-02-09T09:27:49.931Z,54.66
2018-02-09T09:30:17.678Z,54.70
2018-02-09T09:32:45.201Z,55.64
2018-02-09T09:35:12.732Z,55.57
2018-02-09T09:37:40.273Z,55.12
2018-02-09T09:40:07.785Z,55.88
2018-02-09T09:42:35.577Z,54.92
2018-02-09T09:45:03.123Z,55.17
2018-02-09T09:47:30.647Z,54.66
2018-02-09T09:49:58.214Z,55.12
2018-02-09T09:52:25.745Z,54.73
2018-02-09T09:54:53.909Z,55.43
2018-02-09T09:57:21.431Z,55.11
2018-02-09T09:59:48.965Z,55.71
2018-02-09T10:02:28.419Z,54.89
2018-02-09T10:04:55.946Z,53.96
2018-02-09T10:07:23.689Z,54.14
2018-02-09T10:09:51.206Z,53.67
2018-02-09T10:12:18.733Z,53.07
2018-02-09T10:14:46.289Z,52.80
2018-02-09T10:17:13.814Z,53.83
2018-02-09T10:19:41.566Z,53.34
2018-02-09T10:22:09.096Z,53.35
2018-02-09T10:24:36.621Z,54.30
2018-02-09T10:27:04.178Z,53.06
2018-02-09T10:29:31.697Z,53.02
2018-02-09T10:31:59.399Z,52.75
2018-02-09T10:34:26.918Z,53.37
2018-02-09T10:36:54.434Z,52.81
2018-02-09T10:39:22.074Z,52.92
2018-02-09T10:41:49.714Z,52.99
2018-02-09T10:44:17.558Z,52.61
2018-02-09T10:46:45.090Z,52.44
2018-02-09T10:49:12.627Z,52.36
2018-02-09T10:51:40.182Z,52.39
2018-02-09T10:54:07.710Z,52.97
2018-02-09T10:56:35.894Z,52.82
2018-02-09T10:59:03.438Z,52.54
2018-02-09T11:01:37.136Z,53.08
2018-02-09T11:04:05.021Z,54.19
2018-02-09T11:06:32.543Z,52.99
2018-02-09T11:09:00.106Z,52.39
2018-02-09T11:11:27.642Z,51.49
2018-02-09T11:13:55.185Z,52.34
2018-02-09T11:16:22.711Z,53.66
2018-02-09T11:18:50.483Z,52.66
2018-02-09T11:21:18.550Z,51.68
2018-02-09T11:23:46.066Z,51.87
2018-02-09T11:26:13.610Z,51.81
2018-02-09T11:28:41.131Z,51.48
2018-02-09T11:31:08.690Z,51.36
2018-02-09T11:33:36.228Z,51.83
2018-02-09T11:36:03.915Z,51.60
2018-02-09T11:38:31.465Z,52.56
2018-02-09T11:40:59.406Z,52.18
2018-02-09T11:43:27.089Z,51.69
2018-02-09T11:45:54.610Z,52.23
2018-02-09T11:48:22.134Z,52.56
2018-02-09T11:50:49.686Z,53.41
2018-02-09T11:53:17.290Z,52.86
2018-02-09T11:55:44.875Z,53.85
2018-02-09T11:58:12.552Z,52.84
2018-02-09T12:00:40.266Z,52.55
2018-02-09T12:03:09.003Z,52.23
2018-02-09T12:05:36.741Z,52.03
2018-02-09T12:08:04.627Z,52.29
2018-02-09T12:10:32.397Z,52.44
2018-02-09T12:12:59.966Z,52.15
2018-02-09T12:15:27.502Z,52.55
2018-02-09T12:17:55.026Z,53.14
2018-02-09T12:20:22.941Z,52.69
2018-02-09T12:22:50.602Z,52.33
2018-02-09T12:25:18.136Z,52.59
2018-02-09T12:27:45.910Z,52.38
2018-02-09T12:30:14.511Z,53.04
2018-02-09T12:32:42.269Z,53.65
2018-02-09T12:35:09.813Z,52.30
2018-02-09T12:37:37.366Z,52.45
2018-02-09T12:40:05.220Z,52.48
2018-02-09T12:42:33.951Z,52.08
2018-02-09T12:45:02.103Z,51.62
2018-02-09T12:47:29.803Z,51.48
2018-02-09T12:49:58.147Z,50.47
2018-02-09T12:52:26.125Z,50.33
2018-02-09T12:54:53.954Z,50.13
2018-02-09T12:57:22.066Z,50.01
2018-02-09T12:59:51.113Z,49.93
2018-02-09T13:02:19.230Z,49.50
2018-02-09T13:04:47.710Z,49.36
2018-02-09T13:07:15.679Z,49.27
2018-02-09T13:09:43.835Z,48.80
2018-02-09T13:12:24.929Z,48.22
2018-02-09T13:14:53.333Z,49.29
2018-02-09T13:17:21.381Z,48.24
2018-02-09T13:19:50.123Z,48.49
2018-02-09T13:22:29.709Z,47.31
2018-02-09T13:24:57.470Z,46.29
2018-02-09T13:27:25.441Z,44.89
2018-02-09T13:29:53.309Z,45.09
2018-02-09T13:32:33.653Z,44.67
2018-02-09T13:35:01.520Z,45.32
2018-02-09T13:37:35.679Z,45.18
2018-02-09T13:40:03.803Z,45.08
2018-02-09T13:42:31.991Z,44.32
2018-02-09T13:44:59.965Z,43.32
2018-02-09T13:47:27.760Z,43.96
2018-02-09T13:49:55.925Z,44.60
2018-02-09T13:52:23.781Z,46.04
2018-02-09T13:54:51.666Z,47.49
2018-02-09T13:57:19.571Z,49.03
2018-02-09T13:59:47.364Z,48.62
2018-02-09T14:02:16.254Z,49.20
2018-02-09T14:04:44.429Z,49.89
2018-02-09T14:07:13.528Z,49.10
2018-02-09T14:09:41.393Z,48.89
2018-02-09T14:12:09.845Z,48.73
2018-02-09T14:14:37.942Z,48.77
2018-02-09T14:17:06.234Z,49.43
2018-02-09T14:19:34.141Z,48.90
2018-02-09T14:22:02.060Z,48.90
2018-02-09T14:24:30.284Z,49.16
2018-02-09T14:26:58.672Z,49.87
2018-02-09T14:29:27.134Z,49.51
2018-02-09T14:31:55.157Z,49.92
2018-02-09T14:34:23.024Z,49.70
2018-02-09T14:36:50.788Z,49.71
2018-02-09T14:39:18.788Z,50.01
2018-02-09T14:41:46.727Z,49.63
2018-02-09T14:44:14.907Z,49.46
2018-02-09T14:46:42.663Z,49.91
2018-02-09T14:49:11.045Z,50.10
2018-02-09T14:51:39.216Z,50.02
2018-02-09T14:54:07.053Z,49.55
2018-02-09T14:56:34.848Z,49.52
2018-02-09T14:59:02.689Z,50.21
2018-02-09T15:01:30.681Z,49.75
2018-02-09T15:03:59.468Z,49.99
2018-02-09T15:06:27.438Z,49.80
2018-02-09T15:08:55.347Z,49.73
2018-02-09T15:11:23.406Z,49.89
2018-02-09T15:13:51.652Z,49.59
2018-02-09T15:16:19.603Z,49.71
2018-02-09T15:18:47.487Z,50.13
2018-02-09T15:21:15.411Z,50.24
2018-02-09T15:23:43.322Z,50.08
2018-02-09T15:26:11.471Z,49.76
2018-02-09T15:28:39.404Z,49.87
2018-02-09T15:31:07.307Z,49.95
2018-02-09T15:33:35.271Z,49.98
2018-02-09T15:36:03.180Z,50.07
2018-02-09T15:38:31.402Z,50.73
2018-02-09T15:40:59.269Z,50.29
2018-02-09T15:43:27.277Z,50.51
2018-02-09T15:45:56.782Z,50.96
2018-02-09T15:48:24.752Z,51.53
2018-02-09T15:50:52.935Z,51.79
2018-02-09T15:53:20.893Z,51.92
2018-02-09T15:55:49.048Z,51.60
2018-02-09T15:58:17.240Z,52.10
2018-02-09T16:00:45.205Z,52.00
2018-02-09T16:03:13.280Z,52.46
2018-02-09T16:05:41.153Z,52.81
2018-02-09T16:08:09.116Z,52.86
2018-02-09T16:10:38.210Z,53.06
2018-02-09T16:13:05.975Z,53.16
2018-02-09T16:15:34.923Z,53.62
2018-02-09T16:18:02.732Z,53.82
2018-02-09T16:20:30.598Z,54.01
2018-02-09T16:22:58.674Z,54.23
2018-02-09T16:25:26.522Z,54.17
2018-02-09T16:27:54.812Z,53.90
2018-02-09T16:30:22.753Z,54.75
2018-02-09T16:32:50.648Z,54.07
2018-02-09T16:35:18.371Z,53.87
2018-02-09T16:37:46.227Z,54.02
2018-02-09T16:40:14.453Z,54.07
2018-02-09T16:42:42.319Z,54.33
2018-02-09T16:45:11.216Z,54.19
2018-02-09T16:47:39.312Z,54.71
2018-02-09T16:50:07.372Z,54.76
2018-02-09T16:52:35.832Z,54.86
2018-02-09T16:55:03.665Z,55.59
2018-02-09T16:57:31.566Z,55.00
2018-02-09T16:59:59.431Z,55.56
2018-02-09T17:02:27.297Z,55.06
2018-02-09T17:04:56.112Z,55.45
2018-02-09T17:07:24.975Z,55.45
2018-02-09T17:09:52.796Z,55.58
2018-02-09T17:12:21.529Z,55.48
2018-02-09T17:14:49.804Z,55.57
2018-02-09T17:17:18.181Z,55.61
2018-02-09T17:19:46.048Z,55.47
2018-02-09T17:22:15.001Z,55.72
2018-02-09T17:24:42.908Z,55.61
2018-02-09T17:27:10.777Z,55.63
2018-02-09T17:29:39.053Z,55.82
2018-02-09T17:32:07.193Z,55.65
2018-02-09T17:34:35.585Z,55.75
2018-02-09T17:37:03.982Z,55.64
2018-02-09T17:39:32.362Z,55.13
2018-02-09T17:42:00.434Z,54.96
2018-02-09T17:44:28.399Z,55.27
2018-02-09T17:46:56.270Z,55.73
2018-02-09T17:49:24.137Z,56.12
2018-02-09T17:51:52.007Z,55.59
2018-02-09T17:54:20.143Z,55.28
2018-02-09T17:56:48.012Z,55.14
2018-02-09T17:59:16.801Z,55.42
2018-02-09T18:01:44.695Z,55.65
2018-02-09T18:04:12.560Z,56.13
2018-02-09T18:06:40.316Z,56.03
2018-02-09T18:09:08.294Z,56.52
2018-02-09T18:11:36.065Z,56.17
2018-02-09T18:14:03.926Z,56.33
2018-02-09T18:16:31.800Z,56.29
2018-02-09T18:18:59.664Z,56.79
2018-02-09T18:21:27.614Z,56.51
2018-02-09T18:23:55.495Z,56.50
2018-02-09T18:26:23.466Z,56.31
2018-02-09T18:28:51.269Z,56.77
2018-02-09T18:31:19.194Z,57.24
2018-02-09T18:33:47.571Z,57.25
2018-02-09T18:36:15.425Z,57.69
2018-02-09T18:38:43.406Z,57.92
2018-02-09T18:41:11.274Z,57.65
2018-02-09T18:43:39.959Z,58.05
2018-02-09T18:46:08.338Z,57.59
2018-02-09T18:48:37.740Z,57.83
2018-02-09T18:51:06.016Z,57.20
2018-02-09T18:53:33.843Z,57.54
2018-02-09T18:56:01.749Z,57.36
2018-02-09T18:58:29.980Z,57.83
2018-02-09T19:00:58.164Z,57.43
2018-02-09T19:03:27.499Z,57.34
2018-02-09T19:05:55.570Z,57.55
2018-02-09T19:08:24.358Z,57.38
2018-02-09T19:10:52.376Z,57.67
2018-02-09T19:13:21.524Z,57.82
2018-02-09T19:15:49.493Z,57.89
2018-02-09T19:18:17.758Z,57.92
2018-02-09T19:20:45.701Z,58.17
2018-02-09T19:23:13.617Z,57.95
2018-02-09T19:25:41.470Z,58.17
2018-02-09T19:28:10.181Z,58.28
2018-02-09T19:30:38.127Z,58.20
2018-02-09T19:33:06.260Z,58.21
2018-02-09T19:35:34.185Z,59.09
2018-02-09T19:38:02.042Z,58.72
2018-02-09T19:40:29.898Z,58.66
2018-02-09T19:42:57.766Z,58.45
2018-02-09T19:45:26.043Z,58.71
2018-02-09T19:47:54.567Z,58.52
2018-02-09T19:50:22.425Z,58.61
2018-02-09T19:52:51.893Z,58.91
2018-02-09T19:55:21.829Z,59.54
2018-02-09T19:57:49.941Z,59.15
2018-02-09T20:00:17.870Z,59.13
2018-02-09T20:02:45.632Z,59.19
2018-02-09T20:05:13.581Z,59.62
2018-02-09T20:07:41.450Z,59.69
2018-02-09T20:10:09.725Z,59.61
2018-02-09T20:12:38.614Z,59.63
2018-02-09T20:15:06.483Z,60.14
2018-02-09T20:17:35.741Z,59.76
2018-02-09T20:20:03.563Z,59.53
2018-02-09T20:22:31.766Z,59.40
2018-02-09T20:24:59.631Z,59.07
2018-02-09T20:27:27.452Z,59.08
2018-02-09T20:29:55.490Z,59.17
2018-02-09T20:32:23.857Z,58.77
2018-02-09T20:35:04.046Z,58.66
2018-02-09T20:37:31.924Z,58.42
2018-02-09T20:39:59.791Z,58.35
2018-02-09T20:42:27.760Z,58.37
2018-02-09T20:44:55.830Z,58.24
2018-02-09T20:47:24.104Z,58.14
2018-02-09T20:49:51.948Z,58.12
2018-02-09T20:52:19.838Z,58.02
2018-02-09T20:54:47.807Z,58.84
2018-02-09T20:57:15.878Z,58.36
2018-02-09T20:59:44.367Z,58.46
2018-02-09T21:02:12.352Z,58.78
2018-02-09T21:04:40.501Z,58.84
2018-02-09T21:07:08.838Z,58.71
2018-02-09T21:09:37.157Z,58.77
2018-02-09T21:12:05.296Z,58.99
2018-02-09T21:14:33.197Z,59.19
2018-02-09T21:17:01.067Z,59.29
2018-02-09T21:19:29.032Z,59.18
2018-02-09T21:21:57.003Z,59.22
2018-02-09T21:24:25.912Z,59.40
2018-02-09T21:26:54.169Z,59.42
2018-02-09T21:29:22.034Z,59.21
2018-02-09T21:31:50.003Z,59.09
2018-02-09T21:34:17.869Z,58.88
2018-02-09T21:36:45.851Z,58.95
2018-02-09T21:39:14.014Z,58.74
2018-02-09T21:41:42.088Z,58.45
2018-02-09T21:44:10.154Z,58.19
2018-02-09T21:46:38.942Z,58.22
2018-02-09T21:49:07.298Z,58.02
2018-02-09T21:51:35.187Z,57.75
2018-02-09T21:54:02.985Z,57.76
2018-02-09T21:56:31.023Z,58.12
2018-02-09T21:58:58.889Z,58.30
2018-02-09T22:01:27.168Z,58.19
2018-02-09T22:03:55.031Z,58.08
2018-02-09T22:06:25.368Z,58.27
2018-02-09T22:08:53.355Z,58.28
2018-02-09T22:11:22.112Z,58.42
2018-02-09T22:13:50.160Z,58.25
2018-02-09T22:16:18.243Z,58.28
2018-02-09T22:18:47.248Z,58.17
2018-02-09T22:21:15.114Z,58.10
2018-02-09T22:23:43.186Z,57.96
2018-02-09T22:26:11.361Z,57.96
2018-02-09T22:28:39.126Z,57.98
2018-02-09T22:31:06.785Z,57.92
2018-02-09T22:33:35.170Z,57.83
2018-02-09T22:36:03.031Z,57.95
2018-02-09T22:38:31.001Z,57.85
2018-02-09T22:40:58.864Z,57.75
2018-02-09T22:43:26.731Z,57.76
2018-02-09T22:45:54.602Z,57.87
2018-02-09T22:48:22.467Z,57.90
2018-02-09T22:50:50.535Z,57.94
2018-02-09T22:53:18.402Z,57.71
2018-02-09T22:55:46.245Z,57.77
2018-02-09T22:58:14.875Z,57.86
2018-02-09T23:00:42.604Z,57.94
2018-02-09T23:03:11.405Z,58.76
2018-02-09T23:05:40.254Z,58.74
2018-02-09T23:08:08.062Z,58.91
2018-02-09T23:10:36.655Z,58.72
2018-02-09T23:13:05.021Z,58.91
2018-02-09T23:15:33.091Z,58.94
2018-02-09T23:18:00.958Z,58.90
2018-02-09T23:20:28.704Z,58.65
2018-02-09T23:22:56.691Z,58.53
2018-02-09T23:25:24.354Z,58.41
2018-02-09T23:27:51.927Z,58.37
2018-02-09T23:30:19.868Z,58.29
2018-02-09T23:32:48.331Z,58.84
2018-02-09T23:35:15.992Z,59.05
2018-02-09T23:37:43.737Z,59.28
2018-02-09T23:40:11.357Z,59.17
2018-02-09T23:42:38.890Z,59.18
2018-02-09T23:45:06.571Z,58.90
2018-02-09T23:47:34.126Z,59.73
2018-02-09T23:50:01.775Z,59.30
2018-02-09T23:52:29.386Z,60.80
2018-02-09T23:54:56.914Z,60.76
2018-02-09T23:57:24.761Z,61.35
2018-02-09T23:59:52.331Z,61.19
